createdAt,value
2022-08-08T00:00:53.090Z,2.70
2022-08-08T00:03:31.450Z,2.40
2022-08-08T00:06:47.885Z,2.40
2022-08-08T00:13:10.828Z,2.20
2022-08-08T00:16:36.076Z,2.80
2022-08-08T00:23:02.558Z,2.50
2022-08-08T00:26:29.010Z,2.60
2022-08-08T00:29:44.905Z,2.80
2022-08-08T00:32:56.879Z,2.20
2022-08-08T00:36:15.068Z,2.60
2022-08-08T00:41:06.863Z,2.60
2022-08-08T00:43:40.894Z,2.40
2022-08-08T00:47:36.770Z,2.50
2022-08-08T00:51:24.843Z,2.70
2022-08-08T00:55:36.047Z,2.70
2022-08-08T00:59:18.746Z,2.40
2022-08-08T01:03:59.988Z,3.30
2022-08-08T01:07:13.368Z,2.30
2022-08-08T01:10:54.342Z,2.40
2022-08-08T01:14:54.129Z,2.80
2022-08-08T01:18:53.356Z,2.20
2022-08-08T01:22:32.347Z,2.50
2022-08-08T01:26:17.882Z,2.50
2022-08-08T01:29:59.164Z,2.50
2022-08-08T01:34:00.522Z,2.50
2022-08-08T01:37:56.883Z,2.40
2022-08-08T01:41:16.010Z,2.50
2022-08-08T01:44:39.081Z,2.40
2022-08-08T01:48:16.293Z,2.50
2022-08-08T01:52:42.795Z,2.50
2022-08-08T01:56:27.580Z,2.60
2022-08-08T01:59:21.822Z,2.70
2022-08-08T02:02:42.986Z,2.50
2022-08-08T02:05:59.255Z,2.40
2022-08-08T02:09:17.402Z,2.30
2022-08-08T02:12:29.859Z,2.70
2022-08-08T02:15:41.352Z,2.30
2022-08-08T02:18:58.902Z,2.60
2022-08-08T02:22:31.592Z,2.50
2022-08-08T02:25:48.754Z,2.50
2022-08-08T02:29:22.102Z,2.30
2022-08-08T02:32:46.566Z,2.40
2022-08-08T02:36:12.516Z,2.50
2022-08-08T02:39:59.548Z,2.40
2022-08-08T02:44:43.121Z,2.50
2022-08-08T02:47:59.683Z,2.50
2022-08-08T02:51:56.544Z,2.50
2022-08-08T02:55:24.146Z,2.50
2022-08-08T02:59:00.604Z,2.40
2022-08-08T03:02:37.683Z,2.40
2022-08-08T03:06:34.986Z,2.90
2022-08-08T03:10:33.430Z,2.50
2022-08-08T03:15:56.573Z,2.90
2022-08-08T03:17:52.129Z,2.70
2022-08-08T03:21:09.969Z,3.40
2022-08-08T03:24:21.463Z,2.90
2022-08-08T03:27:35.975Z,2.50
2022-08-08T03:30:49.345Z,2.40
2022-08-08T03:34:16.778Z,2.70
2022-08-08T03:38:52.827Z,2.50
2022-08-08T03:40:55.379Z,2.50
2022-08-08T03:44:01.736Z,2.60
2022-08-08T03:47:19.450Z,2.50
2022-08-08T03:50:28.037Z,2.60
2022-08-08T03:53:47.324Z,3.00
2022-08-08T03:56:54.889Z,3.20
2022-08-08T04:00:11.583Z,2.70
2022-08-08T04:03:18.348Z,2.70
2022-08-08T04:06:32.665Z,2.50
2022-08-08T04:09:58.875Z,2.50
2022-08-08T04:13:18.164Z,2.40
2022-08-08T04:16:40.658Z,2.70
2022-08-08T04:19:47.471Z,2.40
2022-08-08T04:22:55.006Z,2.50
2022-08-08T04:26:09.405Z,2.60
2022-08-08T04:29:16.396Z,2.50
2022-08-08T04:32:30.572Z,2.60
2022-08-08T04:35:40.706Z,2.60
2022-08-08T04:39:47.928Z,2.40
2022-08-08T04:42:23.621Z,2.60
2022-08-08T04:45:30.329Z,2.60
2022-08-08T04:48:36.539Z,2.50
2022-08-08T04:51:55.171Z,2.80
2022-08-08T04:55:04.516Z,2.70
2022-08-08T04:58:14.709Z,2.60
2022-08-08T05:01:24.091Z,3.60
2022-08-08T05:04:44.531Z,3.10
2022-08-08T05:07:51.231Z,6.50
2022-08-08T05:11:02.984Z,2.80
2022-08-08T05:14:11.944Z,3.20
2022-08-08T05:17:19.102Z,3.00
2022-08-08T05:20:25.639Z,2.90
2022-08-08T05:23:32.962Z,2.60
2022-08-08T05:26:48.782Z,3.90
2022-08-08T05:29:55.165Z,3.50
2022-08-08T05:33:03.354Z,3.10
2022-08-08T05:36:25.440Z,3.10
2022-08-08T05:39:35.024Z,3.00
2022-08-08T05:42:44.703Z,2.80
2022-08-08T05:45:53.324Z,3.30
2022-08-08T05:49:03.815Z,3.00
2022-08-08T05:52:17.835Z,2.80
2022-08-08T05:56:09.531Z,2.90
2022-08-08T05:59:12.647Z,3.40
2022-08-08T06:02:44.008Z,2.90
2022-08-08T06:05:59.094Z,3.00
2022-08-08T06:09:58.556Z,3.40
2022-08-08T06:12:36.706Z,4.20
2022-08-08T06:15:51.375Z,2.80
2022-08-08T06:19:01.841Z,4.50
2022-08-08T06:26:35.945Z,2.60
2022-08-08T06:29:26.887Z,4.30
2022-08-08T06:32:47.707Z,3.00
2022-08-08T06:36:04.693Z,3.20
2022-08-08T06:39:16.473Z,3.40
2022-08-08T06:42:23.646Z,4.90
2022-08-08T06:45:33.404Z,3.40
2022-08-08T06:48:40.084Z,4.40
2022-08-08T07:04:37.715Z,3.40
2022-08-08T07:07:24.022Z,4.10
2022-08-08T07:57:09.029Z,2.80
2022-08-08T08:00:17.874Z,3.30
2022-08-08T08:03:43.461Z,7.60
2022-08-08T08:06:50.770Z,6.90
2022-08-08T08:09:58.690Z,4.60
2022-08-08T08:13:25.825Z,7.30
2022-08-08T08:16:50.449Z,5.40
2022-08-08T08:20:01.677Z,11.00
2022-08-08T08:23:07.934Z,7.60
2022-08-08T08:26:14.781Z,3.70
2022-08-08T08:29:33.680Z,3.30
2022-08-08T08:32:51.113Z,3.50
2022-08-08T08:39:22.916Z,2.70
2022-08-08T08:42:36.199Z,2.70
2022-08-08T08:45:43.986Z,3.30
2022-08-08T08:48:50.747Z,3.10
2022-08-08T08:52:02.908Z,3.90
2022-08-08T08:55:14.740Z,3.30
2022-08-08T08:58:32.737Z,4.20
2022-08-08T09:01:43.726Z,4.80
2022-08-08T09:04:57.335Z,3.90
2022-08-08T09:08:12.759Z,3.10
2022-08-08T09:11:25.676Z,3.50
2022-08-08T09:14:42.811Z,5.50
2022-08-08T09:17:55.803Z,3.50
2022-08-08T09:22:02.438Z,7.10
2022-08-08T09:24:32.667Z,3.10
2022-08-08T09:27:56.701Z,3.20
2022-08-08T09:31:13.229Z,2.80
2022-08-08T09:34:32.058Z,2.30
2022-08-08T09:37:58.267Z,2.80
2022-08-08T09:41:08.167Z,2.50
2022-08-08T09:44:34.455Z,2.50
2022-08-08T09:48:05.159Z,3.00
2022-08-08T09:51:09.895Z,2.50
2022-08-08T09:54:19.979Z,2.40
2022-08-08T09:57:55.812Z,2.60
2022-08-08T10:01:15.632Z,2.40
2022-08-08T10:04:47.528Z,2.40
2022-08-08T10:08:01.630Z,3.20
2022-08-08T10:12:22.444Z,3.70
2022-08-08T10:14:40.224Z,3.10
2022-08-08T10:18:06.458Z,2.40
2022-08-08T10:21:25.292Z,2.70
2022-08-08T10:24:38.173Z,2.50
2022-08-08T10:27:46.449Z,2.60
2022-08-08T10:31:21.513Z,2.70
2022-08-08T10:35:00.448Z,2.30
2022-08-08T10:38:10.743Z,2.40
2022-08-08T10:41:24.329Z,2.30
2022-08-08T10:44:43.198Z,2.70
2022-08-08T10:47:56.710Z,3.60
2022-08-08T10:51:14.828Z,3.20
2022-08-08T10:54:26.844Z,2.40
2022-08-08T10:57:45.505Z,1.70
2022-08-08T11:01:03.149Z,1.60
2022-08-08T11:04:12.282Z,1.50
2022-08-08T11:08:30.277Z,1.60
2022-08-08T11:11:08.166Z,1.70
2022-08-08T11:14:32.510Z,1.40
2022-08-08T11:17:59.385Z,1.80
2022-08-08T11:21:10.083Z,2.10
2022-08-08T11:24:17.171Z,1.80
2022-08-08T11:27:36.962Z,1.50
2022-08-08T11:30:51.844Z,1.00
2022-08-08T11:34:22.911Z,1.30
2022-08-08T11:37:39.790Z,1.00
2022-08-08T11:40:57.979Z,2.40
2022-08-08T11:44:05.381Z,2.10
2022-08-08T11:47:17.152Z,1.20
2022-08-08T11:50:25.030Z,1.10
2022-08-08T11:53:42.897Z,1.20
2022-08-08T12:00:23.379Z,1.10
2022-08-08T12:03:34.227Z,1.90
2022-08-08T12:06:40.730Z,1.40
2022-08-08T12:09:59.326Z,1.60
2022-08-08T12:13:12.293Z,1.60
2022-08-08T12:16:30.198Z,1.30
2022-08-08T12:19:51.839Z,1.30
2022-08-08T12:23:00.375Z,1.50
2022-08-08T12:26:16.919Z,1.20
2022-08-08T12:29:42.331Z,1.50
2022-08-08T12:32:51.218Z,1.10
2022-08-08T12:35:57.517Z,1.50
2022-08-08T12:39:06.757Z,0.90
2022-08-08T12:42:20.883Z,1.20
2022-08-08T12:46:00.096Z,1.30
2022-08-08T12:52:34.838Z,1.10
2022-08-08T12:56:17.753Z,1.10
2022-08-08T12:59:36.454Z,1.20
2022-08-08T13:03:00.700Z,1.50
2022-08-08T13:06:13.993Z,1.30
2022-08-08T13:09:29.951Z,1.50
2022-08-08T13:12:46.979Z,1.20
2022-08-08T13:15:55.076Z,1.30
2022-08-08T13:19:08.029Z,1.10
2022-08-08T13:22:24.530Z,1.10
2022-08-08T13:25:37.668Z,1.60
2022-08-08T13:28:45.710Z,2.00
2022-08-08T13:31:53.165Z,1.20
2022-08-08T13:35:00.642Z,1.70
2022-08-08T13:38:08.725Z,1.50
2022-08-08T13:41:19.669Z,1.30
2022-08-08T13:44:30.291Z,1.20
2022-08-08T13:47:37.534Z,1.60
2022-08-08T13:50:52.540Z,1.20
2022-08-08T13:54:01.035Z,1.00
2022-08-08T13:57:12.625Z,1.10
2022-08-08T14:00:23.078Z,1.20
2022-08-08T14:03:52.329Z,1.10
2022-08-08T14:07:03.332Z,1.10
2022-08-08T14:10:17.570Z,1.20
2022-08-08T14:13:59.221Z,1.00
2022-08-08T14:17:11.798Z,1.20
2022-08-08T14:20:56.958Z,1.00
2022-08-08T14:24:07.968Z,1.20
2022-08-08T14:27:27.069Z,1.10
2022-08-08T14:30:37.722Z,1.20
2022-08-08T14:33:51.812Z,1.10
2022-08-08T14:37:08.309Z,1.00
2022-08-08T14:40:24.010Z,1.00
2022-08-08T14:44:02.577Z,1.40
2022-08-08T14:47:01.598Z,1.30
2022-08-08T14:50:21.373Z,2.10
2022-08-08T14:53:56.294Z,1.50
2022-08-08T14:57:03.984Z,1.10
2022-08-08T15:00:13.756Z,1.20
2022-08-08T15:03:19.943Z,1.30
2022-08-08T15:06:28.902Z,2.00
2022-08-08T15:09:35.122Z,1.30
2022-08-08T15:12:42.506Z,1.30
2022-08-08T15:16:02.474Z,1.40
2022-08-08T15:19:09.775Z,1.30
2022-08-08T15:22:17.924Z,1.30
2022-08-08T15:25:32.975Z,1.70
2022-08-08T15:28:39.545Z,1.50
2022-08-08T15:32:03.712Z,1.40
2022-08-08T15:35:12.655Z,1.30
2022-08-08T15:38:22.594Z,1.40
2022-08-08T15:41:43.493Z,4.10
2022-08-08T15:44:50.527Z,2.60
2022-08-08T15:48:11.126Z,1.50
2022-08-08T15:51:22.758Z,1.50
2022-08-08T15:54:40.566Z,1.50
2022-08-08T15:57:46.735Z,1.70
2022-08-08T16:00:53.328Z,1.60
2022-08-08T16:03:59.920Z,1.50
2022-08-08T16:07:07.034Z,1.40
2022-08-08T16:13:15.124Z,1.50
2022-08-08T16:13:46.011Z,1.70
2022-08-08T16:16:55.247Z,1.70
2022-08-08T16:20:01.567Z,1.80
2022-08-08T16:23:08.811Z,1.50
2022-08-08T16:26:19.358Z,1.70
2022-08-08T16:30:12.883Z,1.60
2022-08-08T16:33:05.700Z,1.50
2022-08-08T16:36:15.645Z,1.70
2022-08-08T16:39:59.963Z,1.90
2022-08-08T16:42:51.772Z,1.60
2022-08-08T16:46:37.473Z,1.80
2022-08-08T16:49:38.508Z,1.80
2022-08-08T16:55:04.075Z,1.80
2022-08-08T16:56:15.253Z,2.10
2022-08-08T16:59:21.780Z,2.40
2022-08-08T17:02:38.114Z,2.50
2022-08-08T17:05:50.935Z,2.50
2022-08-08T17:08:57.193Z,2.30
2022-08-08T17:12:03.445Z,3.40
2022-08-08T17:15:20.152Z,3.30
2022-08-08T17:18:27.118Z,2.50
2022-08-08T17:21:41.145Z,2.20
2022-08-08T17:24:53.740Z,2.30
2022-08-08T17:28:00.356Z,2.60
2022-08-08T17:31:44.768Z,2.90
2022-08-08T17:34:47.855Z,2.80
2022-08-08T17:38:01.197Z,2.30
2022-08-08T17:41:10.221Z,2.50
2022-08-08T17:44:17.711Z,2.30
2022-08-08T17:47:27.614Z,2.90
2022-08-08T17:50:34.806Z,2.50
2022-08-08T17:53:43.394Z,2.40
2022-08-08T17:56:50.362Z,2.50
2022-08-08T18:00:01.619Z,2.60
2022-08-08T18:03:13.348Z,2.50
2022-08-08T18:06:30.757Z,2.50
2022-08-08T18:09:38.840Z,2.30
2022-08-08T18:12:46.016Z,4.80
2022-08-08T18:16:04.220Z,4.80
2022-08-08T18:19:13.284Z,2.90
2022-08-08T18:22:49.913Z,5.30
2022-08-08T18:25:48.046Z,6.30
2022-08-08T18:28:55.516Z,6.00
2022-08-08T18:32:03.229Z,3.50
2022-08-08T18:35:15.835Z,4.70
2022-08-08T18:38:29.547Z,10.60
2022-08-08T18:41:51.683Z,10.90
2022-08-08T18:45:09.227Z,4.90
2022-08-08T18:48:29.576Z,3.90
2022-08-08T18:51:52.732Z,4.80
2022-08-08T18:55:09.802Z,4.50
2022-08-08T18:58:17.853Z,8.20
2022-08-08T19:02:25.390Z,13.80
2022-08-08T19:04:55.513Z,9.80
2022-08-08T19:08:02.313Z,7.70
2022-08-08T19:11:09.426Z,17.80
2022-08-08T19:14:20.431Z,8.50
2022-08-08T19:17:29.359Z,5.40
2022-08-08T19:20:53.770Z,11.80
2022-08-08T19:24:00.326Z,10.20
2022-08-08T19:27:07.853Z,5.30
2022-08-08T19:30:24.029Z,8.30
2022-08-08T19:33:51.951Z,9.50
2022-08-08T19:37:00.178Z,11.40
2022-08-08T19:40:08.363Z,8.10
2022-08-08T19:43:22.065Z,7.60
2022-08-08T19:46:34.723Z,12.60
2022-08-08T19:49:43.077Z,8.00
2022-08-08T19:52:54.948Z,6.10
2022-08-08T19:56:11.965Z,6.20
2022-08-08T19:59:22.470Z,8.60
2022-08-08T20:02:29.126Z,14.40
2022-08-08T20:06:13.400Z,12.70
2022-08-08T20:09:04.604Z,17.60
2022-08-08T20:12:15.391Z,8.50
2022-08-08T20:15:59.767Z,8.00
2022-08-08T20:19:06.414Z,6.90
2022-08-08T20:22:20.867Z,5.90
2022-08-08T20:25:33.503Z,6.20
2022-08-08T20:28:39.686Z,6.90
2022-08-08T20:32:09.978Z,14.20
2022-08-08T20:35:17.914Z,8.40
2022-08-08T20:38:32.679Z,7.90
2022-08-08T20:41:41.398Z,6.90
2022-08-08T20:44:48.427Z,5.90
2022-08-08T20:47:57.717Z,6.10
2022-08-08T20:51:07.834Z,5.80
2022-08-08T20:54:13.868Z,5.30
2022-08-08T20:57:30.830Z,5.50
2022-08-08T21:00:42.303Z,5.60
2022-08-08T21:03:55.360Z,6.20
2022-08-08T21:07:03.000Z,5.60
2022-08-08T21:10:14.331Z,5.30
2022-08-08T21:13:23.478Z,5.50
2022-08-08T21:16:46.640Z,5.40
2022-08-08T21:19:52.556Z,6.00
2022-08-08T21:23:09.197Z,6.00
2022-08-08T21:26:26.863Z,5.50
2022-08-08T21:30:03.961Z,5.90
2022-08-08T21:33:00.067Z,6.00
2022-08-08T21:36:28.723Z,5.50
2022-08-08T21:39:56.144Z,5.80
2022-08-08T21:43:01.698Z,5.80
2022-08-08T21:48:06.606Z,5.70
2022-08-08T21:49:37.207Z,5.60
2022-08-08T21:54:27.269Z,5.50
2022-08-08T21:56:31.126Z,5.70
2022-08-08T22:00:01.243Z,5.80
2022-08-08T22:03:02.830Z,5.00
2022-08-08T22:06:13.256Z,4.90
2022-08-08T22:09:43.590Z,5.10
2022-08-08T22:12:51.479Z,5.00
2022-08-08T22:16:00.769Z,5.40
2022-08-08T22:19:08.694Z,4.90
2022-08-08T22:22:24.369Z,4.90
2022-08-08T22:25:41.524Z,4.90
2022-08-08T22:29:14.446Z,4.90
2022-08-08T22:32:29.500Z,4.80
2022-08-08T22:36:04.412Z,4.70
2022-08-08T22:39:01.933Z,4.40
2022-08-08T22:42:12.960Z,5.10
2022-08-08T22:45:19.115Z,4.80
2022-08-08T22:48:25.326Z,4.60
2022-08-08T22:51:35.108Z,5.10
2022-08-08T22:54:53.968Z,4.50
2022-08-08T22:58:02.492Z,4.70
2022-08-08T23:01:26.873Z,4.50
2022-08-08T23:04:37.709Z,5.10
2022-08-08T23:07:56.964Z,4.50
2022-08-08T23:11:06.451Z,4.80
2022-08-08T23:14:20.965Z,4.90
2022-08-08T23:17:30.002Z,4.90
2022-08-08T23:20:36.522Z,4.70
2022-08-08T23:23:48.251Z,4.60
2022-08-08T23:27:00.598Z,4.50
2022-08-08T23:30:09.185Z,4.80
2022-08-08T23:33:21.139Z,4.30
2022-08-08T23:36:42.839Z,4.80
2022-08-08T23:39:55.328Z,4.60
2022-08-08T23:43:04.360Z,4.60
2022-08-08T23:48:59.627Z,4.70
2022-08-08T23:49:37.097Z,4.40
2022-08-08T23:52:43.902Z,4.60
2022-08-08T23:55:50.235Z,4.90
2022-08-08T23:58:59.532Z,5.10
